sensor_id;sensor_type;location;lat;lon;timestamp;temperature;humidity
32173;DHT22;18679;45.190;5.722;2022-07-30T00:02:47;26.20;49.50
32173;DHT22;18679;45.190;5.722;2022-07-30T00:05:48;26.20;49.60
32173;DHT22;18679;45.190;5.722;2022-07-30T00:08:49;26.10;49.60
32173;DHT22;18679;45.190;5.722;2022-07-30T00:11:50;26.10;49.80
32173;DHT22;18679;45.190;5.722;2022-07-30T00:14:51;26.10;49.90
32173;DHT22;18679;45.190;5.722;2022-07-30T00:17:52;26.00;49.90
32173;DHT22;18679;45.190;5.722;2022-07-30T00:20:53;26.00;50.00
32173;DHT22;18679;45.190;5.722;2022-07-30T00:23:54;26.00;50.30
32173;DHT22;18679;45.190;5.722;2022-07-30T00:26:55;26.00;50.50
32173;DHT22;18679;45.190;5.722;2022-07-30T00:29:56;25.90;50.60
32173;DHT22;18679;45.190;5.722;2022-07-30T00:32:57;25.90;51.30
32173;DHT22;18679;45.190;5.722;2022-07-30T00:35:58;25.80;50.80
32173;DHT22;18679;45.190;5.722;2022-07-30T00:38:59;25.80;50.90
32173;DHT22;18679;45.190;5.722;2022-07-30T00:42:02;25.70;50.90
32173;DHT22;18679;45.190;5.722;2022-07-30T00:45:04;25.70;50.90
32173;DHT22;18679;45.190;5.722;2022-07-30T00:48:05;25.60;51.70
32173;DHT22;18679;45.190;5.722;2022-07-30T00:51:06;25.60;51.40
32173;DHT22;18679;45.190;5.722;2022-07-30T00:54:07;25.50;51.40
32173;DHT22;18679;45.190;5.722;2022-07-30T00:57:08;25.50;51.60
32173;DHT22;18679;45.190;5.722;2022-07-30T01:00:12;25.50;51.60
32173;DHT22;18679;45.190;5.722;2022-07-30T01:03:14;25.50;51.70
32173;DHT22;18679;45.190;5.722;2022-07-30T01:06:15;25.50;51.80
32173;DHT22;18679;45.190;5.722;2022-07-30T01:09:16;25.50;51.90
32173;DHT22;18679;45.190;5.722;2022-07-30T01:12:19;25.50;52.00
32173;DHT22;18679;45.190;5.722;2022-07-30T01:15:22;25.40;52.10
32173;DHT22;18679;45.190;5.722;2022-07-30T01:18:24;25.40;52.30
32173;DHT22;18679;45.190;5.722;2022-07-30T01:21:53;25.30;52.50
32173;DHT22;18679;45.190;5.722;2022-07-30T01:28:49;25.20;53.00
32173;DHT22;18679;45.190;5.722;2022-07-30T01:31:53;25.20;53.00
32173;DHT22;18679;45.190;5.722;2022-07-30T01:35:00;25.20;53.20
32173;DHT22;18679;45.190;5.722;2022-07-30T01:38:04;25.10;53.30
32173;DHT22;18679;45.190;5.722;2022-07-30T01:41:06;25.00;53.30
32173;DHT22;18679;45.190;5.722;2022-07-30T01:44:11;25.00;53.30
32173;DHT22;18679;45.190;5.722;2022-07-30T01:47:13;25.10;53.40
32173;DHT22;18679;45.190;5.722;2022-07-30T01:50:15;25.00;53.20
32173;DHT22;18679;45.190;5.722;2022-07-30T01:53:19;25.00;53.20
32173;DHT22;18679;45.190;5.722;2022-07-30T01:56:22;25.00;53.20
32173;DHT22;18679;45.190;5.722;2022-07-30T01:59:26;25.10;53.30
32173;DHT22;18679;45.190;5.722;2022-07-30T02:02:27;25.00;53.20
32173;DHT22;18679;45.190;5.722;2022-07-30T02:05:31;25.00;53.30
32173;DHT22;18679;45.190;5.722;2022-07-30T02:08:40;25.00;53.40
32173;DHT22;18679;45.190;5.722;2022-07-30T02:11:46;25.00;53.50
32173;DHT22;18679;45.190;5.722;2022-07-30T02:18:35;25.00;53.50
32173;DHT22;18679;45.190;5.722;2022-07-30T02:21:44;25.00;53.50
32173;DHT22;18679;45.190;5.722;2022-07-30T02:24:48;24.90;53.60
32173;DHT22;18679;45.190;5.722;2022-07-30T02:27:55;24.90;53.70
32173;DHT22;18679;45.190;5.722;2022-07-30T02:30:59;25.00;53.60
32173;DHT22;18679;45.190;5.722;2022-07-30T02:34:04;25.10;53.40
32173;DHT22;18679;45.190;5.722;2022-07-30T02:37:08;25.10;53.20
32173;DHT22;18679;45.190;5.722;2022-07-30T02:40:16;25.00;53.30
32173;DHT22;18679;45.190;5.722;2022-07-30T02:43:17;24.90;53.30
32173;DHT22;18679;45.190;5.722;2022-07-30T02:46:22;24.80;53.40
32173;DHT22;18679;45.190;5.722;2022-07-30T02:49:43;24.70;53.60
32173;DHT22;18679;45.190;5.722;2022-07-30T02:52:45;24.60;53.80
32173;DHT22;18679;45.190;5.722;2022-07-30T02:55:49;24.50;54.00
32173;DHT22;18679;45.190;5.722;2022-07-30T02:58:52;24.40;54.20
32173;DHT22;18679;45.190;5.722;2022-07-30T03:01:54;24.40;54.40
32173;DHT22;18679;45.190;5.722;2022-07-30T03:04:57;24.30;54.50
32173;DHT22;18679;45.190;5.722;2022-07-30T03:07:59;24.40;54.60
32173;DHT22;18679;45.190;5.722;2022-07-30T03:11:02;24.40;54.60
32173;DHT22;18679;45.190;5.722;2022-07-30T03:14:03;24.40;54.70
32173;DHT22;18679;45.190;5.722;2022-07-30T03:17:05;24.40;54.80
32173;DHT22;18679;45.190;5.722;2022-07-30T03:20:09;24.40;55.10
32173;DHT22;18679;45.190;5.722;2022-07-30T03:23:12;24.50;55.30
32173;DHT22;18679;45.190;5.722;2022-07-30T03:26:15;24.40;55.30
32173;DHT22;18679;45.190;5.722;2022-07-30T03:29:20;24.40;55.40
32173;DHT22;18679;45.190;5.722;2022-07-30T03:32:22;24.40;55.40
32173;DHT22;18679;45.190;5.722;2022-07-30T03:35:24;24.30;55.20
32173;DHT22;18679;45.190;5.722;2022-07-30T03:38:26;24.50;55.20
32173;DHT22;18679;45.190;5.722;2022-07-30T03:41:28;24.40;55.20
32173;DHT22;18679;45.190;5.722;2022-07-30T03:44:30;24.40;55.50
32173;DHT22;18679;45.190;5.722;2022-07-30T03:47:36;24.30;55.70
32173;DHT22;18679;45.190;5.722;2022-07-30T03:50:40;24.30;56.40
32173;DHT22;18679;45.190;5.722;2022-07-30T03:53:41;24.30;55.80
32173;DHT22;18679;45.190;5.722;2022-07-30T03:57:03;24.20;55.80
32173;DHT22;18679;45.190;5.722;2022-07-30T04:00:14;24.20;55.80
32173;DHT22;18679;45.190;5.722;2022-07-30T04:03:30;24.20;55.80
32173;DHT22;18679;45.190;5.722;2022-07-30T04:06:36;24.10;55.90
32173;DHT22;18679;45.190;5.722;2022-07-30T04:09:40;24.10;56.10
32173;DHT22;18679;45.190;5.722;2022-07-30T04:12:58;24.00;56.10
32173;DHT22;18679;45.190;5.722;2022-07-30T04:16:10;24.00;56.80
32173;DHT22;18679;45.190;5.722;2022-07-30T04:19:29;24.00;56.30
32173;DHT22;18679;45.190;5.722;2022-07-30T04:22:33;23.90;56.40
32173;DHT22;18679;45.190;5.722;2022-07-30T04:25:36;23.90;56.50
32173;DHT22;18679;45.190;5.722;2022-07-30T04:28:38;23.90;56.80
32173;DHT22;18679;45.190;5.722;2022-07-30T04:31:39;23.90;56.60
32173;DHT22;18679;45.190;5.722;2022-07-30T04:34:56;23.90;56.60
32173;DHT22;18679;45.190;5.722;2022-07-30T04:38:15;23.90;56.50
32173;DHT22;18679;45.190;5.722;2022-07-30T04:41:20;24.00;56.50
32173;DHT22;18679;45.190;5.722;2022-07-30T04:44:39;24.00;56.40
32173;DHT22;18679;45.190;5.722;2022-07-30T04:48:07;24.00;56.40
32173;DHT22;18679;45.190;5.722;2022-07-30T04:51:34;23.90;56.30
32173;DHT22;18679;45.190;5.722;2022-07-30T04:54:39;23.90;57.20
32173;DHT22;18679;45.190;5.722;2022-07-30T04:57:42;23.90;56.50
32173;DHT22;18679;45.190;5.722;2022-07-30T05:00:44;23.90;56.50
32173;DHT22;18679;45.190;5.722;2022-07-30T05:03:51;23.90;56.60
32173;DHT22;18679;45.190;5.722;2022-07-30T05:06:53;23.90;56.60
32173;DHT22;18679;45.190;5.722;2022-07-30T05:09:54;23.90;56.50
32173;DHT22;18679;45.190;5.722;2022-07-30T05:12:55;23.90;56.50
32173;DHT22;18679;45.190;5.722;2022-07-30T05:15:57;23.90;56.50
32173;DHT22;18679;45.190;5.722;2022-07-30T05:18:59;23.90;56.50
32173;DHT22;18679;45.190;5.722;2022-07-30T05:22:00;23.90;56.50
32173;DHT22;18679;45.190;5.722;2022-07-30T05:25:03;24.00;56.70
32173;DHT22;18679;45.190;5.722;2022-07-30T05:28:04;23.90;56.70
32173;DHT22;18679;45.190;5.722;2022-07-30T05:31:05;23.90;56.70
32173;DHT22;18679;45.190;5.722;2022-07-30T05:34:06;23.90;56.90
32173;DHT22;18679;45.190;5.722;2022-07-30T05:37:18;23.90;56.90
32173;DHT22;18679;45.190;5.722;2022-07-30T05:40:20;23.90;56.90
32173;DHT22;18679;45.190;5.722;2022-07-30T05:43:58;23.90;56.90
32173;DHT22;18679;45.190;5.722;2022-07-30T05:46:59;23.90;56.80
32173;DHT22;18679;45.190;5.722;2022-07-30T05:49:59;24.00;56.80
32173;DHT22;18679;45.190;5.722;2022-07-30T05:53:22;24.00;56.70
32173;DHT22;18679;45.190;5.722;2022-07-30T05:56:46;24.00;56.80
32173;DHT22;18679;45.190;5.722;2022-07-30T05:59:51;24.00;56.70
32173;DHT22;18679;45.190;5.722;2022-07-30T06:03:15;24.00;56.70
32173;DHT22;18679;45.190;5.722;2022-07-30T06:06:42;24.10;56.60
32173;DHT22;18679;45.190;5.722;2022-07-30T06:09:44;24.10;56.50
32173;DHT22;18679;45.190;5.722;2022-07-30T06:12:45;24.20;56.40
32173;DHT22;18679;45.190;5.722;2022-07-30T06:15:47;24.20;56.30
32173;DHT22;18679;45.190;5.722;2022-07-30T06:18:48;24.30;56.20
32173;DHT22;18679;45.190;5.722;2022-07-30T06:22:00;24.30;56.10
32173;DHT22;18679;45.190;5.722;2022-07-30T06:25:02;24.40;55.90
32173;DHT22;18679;45.190;5.722;2022-07-30T06:28:03;24.50;55.70
32173;DHT22;18679;45.190;5.722;2022-07-30T06:31:05;24.60;55.40
32173;DHT22;18679;45.190;5.722;2022-07-30T06:34:06;24.60;55.30
32173;DHT22;18679;45.190;5.722;2022-07-30T06:37:11;24.70;55.10
32173;DHT22;18679;45.190;5.722;2022-07-30T06:40:15;24.80;54.90
32173;DHT22;18679;45.190;5.722;2022-07-30T06:43:32;24.90;54.70
32173;DHT22;18679;45.190;5.722;2022-07-30T06:47:08;25.00;54.50
32173;DHT22;18679;45.190;5.722;2022-07-30T06:50:12;24.90;54.20
32173;DHT22;18679;45.190;5.722;2022-07-30T06:53:13;25.10;54.00
32173;DHT22;18679;45.190;5.722;2022-07-30T06:56:40;25.20;53.70
32173;DHT22;18679;45.190;5.722;2022-07-30T06:59:41;25.20;53.40
32173;DHT22;18679;45.190;5.722;2022-07-30T07:02:59;25.20;53.40
32173;DHT22;18679;45.190;5.722;2022-07-30T07:06:08;25.30;53.30
32173;DHT22;18679;45.190;5.722;2022-07-30T07:09:10;25.40;53.20
32173;DHT22;18679;45.190;5.722;2022-07-30T07:12:19;25.60;53.00
32173;DHT22;18679;45.190;5.722;2022-07-30T07:15:21;25.70;52.60
32173;DHT22;18679;45.190;5.722;2022-07-30T07:18:22;25.80;52.40
32173;DHT22;18679;45.190;5.722;2022-07-30T07:21:28;26.00;52.20
32173;DHT22;18679;45.190;5.722;2022-07-30T07:24:29;26.10;51.80
32173;DHT22;18679;45.190;5.722;2022-07-30T07:27:37;26.30;51.50
32173;DHT22;18679;45.190;5.722;2022-07-30T07:30:40;26.30;51.30
32173;DHT22;18679;45.190;5.722;2022-07-30T07:33:42;26.40;51.30
32173;DHT22;18679;45.190;5.722;2022-07-30T07:36:43;26.50;51.70
32173;DHT22;18679;45.190;5.722;2022-07-30T07:39:44;26.70;50.80
32173;DHT22;18679;45.190;5.722;2022-07-30T07:42:45;26.80;50.40
32173;DHT22;18679;45.190;5.722;2022-07-30T07:45:47;26.80;50.30
32173;DHT22;18679;45.190;5.722;2022-07-30T07:48:48;26.90;50.30
32173;DHT22;18679;45.190;5.722;2022-07-30T07:51:58;26.90;50.20
32173;DHT22;18679;45.190;5.722;2022-07-30T07:54:59;27.10;50.00
32173;DHT22;18679;45.190;5.722;2022-07-30T07:58:00;27.20;49.70
32173;DHT22;18679;45.190;5.722;2022-07-30T08:01:02;27.20;49.50
32173;DHT22;18679;45.190;5.722;2022-07-30T08:04:23;27.30;49.30
32173;DHT22;18679;45.190;5.722;2022-07-30T08:07:43;27.50;49.10
32173;DHT22;18679;45.190;5.722;2022-07-30T08:11:04;27.60;48.60
32173;DHT22;18679;45.190;5.722;2022-07-30T08:14:25;27.70;48.20
32173;DHT22;18679;45.190;5.722;2022-07-30T08:17:46;27.90;47.40
32173;DHT22;18679;45.190;5.722;2022-07-30T08:20:52;28.00;46.90
32173;DHT22;18679;45.190;5.722;2022-07-30T08:24:02;28.20;46.50
32173;DHT22;18679;45.190;5.722;2022-07-30T08:27:05;28.20;46.40
32173;DHT22;18679;45.190;5.722;2022-07-30T08:30:07;28.30;46.20
32173;DHT22;18679;45.190;5.722;2022-07-30T08:33:09;28.40;45.80
32173;DHT22;18679;45.190;5.722;2022-07-30T08:36:10;28.50;44.90
32173;DHT22;18679;45.190;5.722;2022-07-30T08:39:12;28.60;44.40
32173;DHT22;18679;45.190;5.722;2022-07-30T08:42:13;28.60;44.00
32173;DHT22;18679;45.190;5.722;2022-07-30T08:45:16;28.70;43.90
32173;DHT22;18679;45.190;5.722;2022-07-30T08:48:19;28.80;43.60
32173;DHT22;18679;45.190;5.722;2022-07-30T08:51:22;28.90;43.20
32173;DHT22;18679;45.190;5.722;2022-07-30T08:54:54;29.00;42.90
32173;DHT22;18679;45.190;5.722;2022-07-30T08:57:55;29.00;42.60
32173;DHT22;18679;45.190;5.722;2022-07-30T09:00:57;29.20;42.50
32173;DHT22;18679;45.190;5.722;2022-07-30T09:03:58;29.20;42.20
32173;DHT22;18679;45.190;5.722;2022-07-30T09:07:01;29.40;42.10
32173;DHT22;18679;45.190;5.722;2022-07-30T09:10:04;29.50;41.60
32173;DHT22;18679;45.190;5.722;2022-07-30T09:13:38;29.60;41.30
32173;DHT22;18679;45.190;5.722;2022-07-30T09:16:43;29.60;41.20
32173;DHT22;18679;45.190;5.722;2022-07-30T09:20:01;29.70;41.00
32173;DHT22;18679;45.190;5.722;2022-07-30T09:23:06;29.80;40.50
32173;DHT22;18679;45.190;5.722;2022-07-30T09:30:56;29.90;39.60
32173;DHT22;18679;45.190;5.722;2022-07-30T09:34:33;29.90;39.80
32173;DHT22;18679;45.190;5.722;2022-07-30T09:37:36;30.00;40.00
32173;DHT22;18679;45.190;5.722;2022-07-30T09:41:14;30.10;39.70
32173;DHT22;18679;45.190;5.722;2022-07-30T09:44:23;30.20;39.50
32173;DHT22;18679;45.190;5.722;2022-07-30T09:47:32;30.30;39.50
32173;DHT22;18679;45.190;5.722;2022-07-30T09:50:33;30.40;39.50
32173;DHT22;18679;45.190;5.722;2022-07-30T09:53:35;30.50;39.40
32173;DHT22;18679;45.190;5.722;2022-07-30T09:56:36;30.60;39.50
32173;DHT22;18679;45.190;5.722;2022-07-30T09:59:37;30.60;39.30
32173;DHT22;18679;45.190;5.722;2022-07-30T10:02:38;30.70;39.30
32173;DHT22;18679;45.190;5.722;2022-07-30T10:05:53;30.80;39.20
32173;DHT22;18679;45.190;5.722;2022-07-30T10:08:55;30.80;39.20
32173;DHT22;18679;45.190;5.722;2022-07-30T10:11:58;30.80;38.90
32173;DHT22;18679;45.190;5.722;2022-07-30T10:15:00;30.90;38.80
32173;DHT22;18679;45.190;5.722;2022-07-30T10:18:05;30.90;38.40
32173;DHT22;18679;45.190;5.722;2022-07-30T10:21:27;31.00;37.50
32173;DHT22;18679;45.190;5.722;2022-07-30T10:24:47;31.10;36.70
32173;DHT22;18679;45.190;5.722;2022-07-30T10:28:09;31.20;36.60
32173;DHT22;18679;45.190;5.722;2022-07-30T10:31:10;31.30;36.60
32173;DHT22;18679;45.190;5.722;2022-07-30T10:34:26;31.30;36.20
32173;DHT22;18679;45.190;5.722;2022-07-30T10:37:30;31.40;35.50
32173;DHT22;18679;45.190;5.722;2022-07-30T10:40:56;31.50;35.50
32173;DHT22;18679;45.190;5.722;2022-07-30T10:44:05;31.60;35.40
32173;DHT22;18679;45.190;5.722;2022-07-30T10:47:13;31.80;34.40
32173;DHT22;18679;45.190;5.722;2022-07-30T10:50:16;31.80;34.50
32173;DHT22;18679;45.190;5.722;2022-07-30T10:53:43;32.00;34.50
32173;DHT22;18679;45.190;5.722;2022-07-30T10:57:07;32.10;33.20
32173;DHT22;18679;45.190;5.722;2022-07-30T11:00:09;32.10;33.10
32173;DHT22;18679;45.190;5.722;2022-07-30T11:09:41;33.00;31.10
32173;DHT22;18679;45.190;5.722;2022-07-30T11:15:58;34.30;28.70
32173;DHT22;18679;45.190;5.722;2022-07-30T11:19:08;34.60;28.20
32173;DHT22;18679;45.190;5.722;2022-07-30T11:31:41;35.50;26.70
32173;DHT22;18679;45.190;5.722;2022-07-30T11:34:43;35.90;26.80
32173;DHT22;18679;45.190;5.722;2022-07-30T11:44:24;37.20;24.40
32173;DHT22;18679;45.190;5.722;2022-07-30T11:47:26;37.70;23.70
32173;DHT22;18679;45.190;5.722;2022-07-30T11:50:31;37.80;23.50
32173;DHT22;18679;45.190;5.722;2022-07-30T11:53:32;37.60;23.50
32173;DHT22;18679;45.190;5.722;2022-07-30T11:56:33;37.50;23.60
32173;DHT22;18679;45.190;5.722;2022-07-30T11:59:54;37.40;23.20
32173;DHT22;18679;45.190;5.722;2022-07-30T12:02:55;36.70;23.80
32173;DHT22;18679;45.190;5.722;2022-07-30T12:06:10;36.40;23.90
32173;DHT22;18679;45.190;5.722;2022-07-30T12:09:22;36.10;23.90
32173;DHT22;18679;45.190;5.722;2022-07-30T12:12:24;36.40;23.70
32173;DHT22;18679;45.190;5.722;2022-07-30T12:15:33;36.50;23.20
32173;DHT22;18679;45.190;5.722;2022-07-30T12:18:34;36.60;23.70
32173;DHT22;18679;45.190;5.722;2022-07-30T12:21:36;37.00;22.70
32173;DHT22;18679;45.190;5.722;2022-07-30T12:24:36;37.00;22.60
32173;DHT22;18679;45.190;5.722;2022-07-30T12:27:37;37.00;22.20
32173;DHT22;18679;45.190;5.722;2022-07-30T12:30:39;36.80;22.10
32173;DHT22;18679;45.190;5.722;2022-07-30T12:33:40;36.40;22.30
32173;DHT22;18679;45.190;5.722;2022-07-30T12:36:42;36.00;22.70
32173;DHT22;18679;45.190;5.722;2022-07-30T12:39:42;35.50;23.30
32173;DHT22;18679;45.190;5.722;2022-07-30T12:42:51;35.50;23.10
32173;DHT22;18679;45.190;5.722;2022-07-30T12:45:57;35.30;22.50
32173;DHT22;18679;45.190;5.722;2022-07-30T12:49:03;35.10;22.90
32173;DHT22;18679;45.190;5.722;2022-07-30T12:52:05;35.00;23.00
32173;DHT22;18679;45.190;5.722;2022-07-30T12:55:08;34.90;23.10
32173;DHT22;18679;45.190;5.722;2022-07-30T12:58:09;34.80;22.60
32173;DHT22;18679;45.190;5.722;2022-07-30T13:01:11;35.10;21.70
32173;DHT22;18679;45.190;5.722;2022-07-30T13:04:12;35.40;22.00
32173;DHT22;18679;45.190;5.722;2022-07-30T13:07:14;35.50;21.70
32173;DHT22;18679;45.190;5.722;2022-07-30T13:10:16;35.90;21.20
32173;DHT22;18679;45.190;5.722;2022-07-30T13:13:18;35.80;21.00
32173;DHT22;18679;45.190;5.722;2022-07-30T13:16:20;35.60;21.20
32173;DHT22;18679;45.190;5.722;2022-07-30T13:19:21;36.20;20.80
32173;DHT22;18679;45.190;5.722;2022-07-30T13:22:22;36.70;20.20
32173;DHT22;18679;45.190;5.722;2022-07-30T13:25:24;37.20;19.70
32173;DHT22;18679;45.190;5.722;2022-07-30T13:28:25;37.30;19.40
32173;DHT22;18679;45.190;5.722;2022-07-30T13:31:26;37.20;20.20
32173;DHT22;18679;45.190;5.722;2022-07-30T13:34:27;38.30;19.80
32173;DHT22;18679;45.190;5.722;2022-07-30T13:37:29;39.90;18.90
32173;DHT22;18679;45.190;5.722;2022-07-30T13:40:30;40.00;18.40
32173;DHT22;18679;45.190;5.722;2022-07-30T13:43:31;40.50;17.80
32173;DHT22;18679;45.190;5.722;2022-07-30T13:46:32;40.60;17.70
32173;DHT22;18679;45.190;5.722;2022-07-30T13:49:34;40.60;17.50
32173;DHT22;18679;45.190;5.722;2022-07-30T13:52:35;39.90;18.00
32173;DHT22;18679;45.190;5.722;2022-07-30T13:55:37;40.70;17.30
32173;DHT22;18679;45.190;5.722;2022-07-30T13:58:39;42.10;16.60
32173;DHT22;18679;45.190;5.722;2022-07-30T14:01:40;43.50;15.60
32173;DHT22;18679;45.190;5.722;2022-07-30T14:04:41;44.60;14.20
32173;DHT22;18679;45.190;5.722;2022-07-30T14:07:42;45.10;14.60
32173;DHT22;18679;45.190;5.722;2022-07-30T14:10:43;44.90;14.10
32173;DHT22;18679;45.190;5.722;2022-07-30T14:13:49;45.60;14.30
32173;DHT22;18679;45.190;5.722;2022-07-30T14:16:53;46.60;13.90
32173;DHT22;18679;45.190;5.722;2022-07-30T14:19:53;47.30;12.80
32173;DHT22;18679;45.190;5.722;2022-07-30T14:22:56;47.30;12.70
32173;DHT22;18679;45.190;5.722;2022-07-30T14:25:57;47.30;12.70
32173;DHT22;18679;45.190;5.722;2022-07-30T14:28:57;47.20;12.80
32173;DHT22;18679;45.190;5.722;2022-07-30T14:31:58;47.60;12.40
32173;DHT22;18679;45.190;5.722;2022-07-30T14:34:59;48.10;12.10
32173;DHT22;18679;45.190;5.722;2022-07-30T14:38:00;48.60;12.20
32173;DHT22;18679;45.190;5.722;2022-07-30T14:41:02;48.60;11.90
32173;DHT22;18679;45.190;5.722;2022-07-30T14:44:04;48.70;11.80
32173;DHT22;18679;45.190;5.722;2022-07-30T14:47:05;48.80;11.80
32173;DHT22;18679;45.190;5.722;2022-07-30T14:50:06;48.80;11.80
32173;DHT22;18679;45.190;5.722;2022-07-30T14:53:09;49.00;11.50
32173;DHT22;18679;45.190;5.722;2022-07-30T14:56:10;49.30;11.20
32173;DHT22;18679;45.190;5.722;2022-07-30T14:59:13;49.00;11.30
32173;DHT22;18679;45.190;5.722;2022-07-30T15:02:14;47.80;12.00
32173;DHT22;18679;45.190;5.722;2022-07-30T15:05:15;46.50;12.60
32173;DHT22;18679;45.190;5.722;2022-07-30T15:08:16;44.90;13.00
32173;DHT22;18679;45.190;5.722;2022-07-30T15:11:17;43.40;13.70
32173;DHT22;18679;45.190;5.722;2022-07-30T15:14:18;41.90;14.20
32173;DHT22;18679;45.190;5.722;2022-07-30T15:17:19;40.70;14.90
32173;DHT22;18679;45.190;5.722;2022-07-30T15:20:20;39.60;15.90
32173;DHT22;18679;45.190;5.722;2022-07-30T15:23:21;38.60;16.50
32173;DHT22;18679;45.190;5.722;2022-07-30T15:26:22;37.90;16.60
32173;DHT22;18679;45.190;5.722;2022-07-30T15:29:23;37.60;16.80
32173;DHT22;18679;45.190;5.722;2022-07-30T15:32:26;38.40;16.40
32173;DHT22;18679;45.190;5.722;2022-07-30T15:35:27;39.60;15.50
32173;DHT22;18679;45.190;5.722;2022-07-30T15:38:28;40.50;14.80
32173;DHT22;18679;45.190;5.722;2022-07-30T15:41:29;41.20;14.40
32173;DHT22;18679;45.190;5.722;2022-07-30T15:44:30;41.70;14.20
32173;DHT22;18679;45.190;5.722;2022-07-30T15:47:31;42.20;14.00
32173;DHT22;18679;45.190;5.722;2022-07-30T15:50:32;42.50;13.90
32173;DHT22;18679;45.190;5.722;2022-07-30T15:53:33;42.90;13.70
32173;DHT22;18679;45.190;5.722;2022-07-30T15:56:34;43.50;13.40
32173;DHT22;18679;45.190;5.722;2022-07-30T15:59:36;43.80;13.30
32173;DHT22;18679;45.190;5.722;2022-07-30T16:02:37;44.00;13.20
32173;DHT22;18679;45.190;5.722;2022-07-30T16:05:38;44.00;13.30
32173;DHT22;18679;45.190;5.722;2022-07-30T16:08:39;43.80;13.40
32173;DHT22;18679;45.190;5.722;2022-07-30T16:11:39;43.60;13.50
32173;DHT22;18679;45.190;5.722;2022-07-30T16:14:42;43.20;13.70
32173;DHT22;18679;45.190;5.722;2022-07-30T16:17:43;43.20;13.80
32173;DHT22;18679;45.190;5.722;2022-07-30T16:20:44;43.40;13.60
32173;DHT22;18679;45.190;5.722;2022-07-30T16:23:45;43.50;13.70
32173;DHT22;18679;45.190;5.722;2022-07-30T16:26:48;43.30;13.90
32173;DHT22;18679;45.190;5.722;2022-07-30T16:29:50;43.20;13.90
32173;DHT22;18679;45.190;5.722;2022-07-30T16:32:51;43.10;13.90
32173;DHT22;18679;45.190;5.722;2022-07-30T16:35:54;43.10;14.00
32173;DHT22;18679;45.190;5.722;2022-07-30T16:38:55;43.30;13.90
32173;DHT22;18679;45.190;5.722;2022-07-30T16:41:56;43.30;13.90
32173;DHT22;18679;45.190;5.722;2022-07-30T16:44:57;43.40;13.90
32173;DHT22;18679;45.190;5.722;2022-07-30T16:47:58;43.10;14.00
32173;DHT22;18679;45.190;5.722;2022-07-30T16:50:59;42.00;14.70
32173;DHT22;18679;45.190;5.722;2022-07-30T16:54:00;40.70;15.60
32173;DHT22;18679;45.190;5.722;2022-07-30T16:57:01;39.60;16.30
32173;DHT22;18679;45.190;5.722;2022-07-30T17:00:04;38.60;17.10
32173;DHT22;18679;45.190;5.722;2022-07-30T17:03:06;37.60;18.10
32173;DHT22;18679;45.190;5.722;2022-07-30T17:06:07;36.70;18.50
32173;DHT22;18679;45.190;5.722;2022-07-30T17:09:09;36.20;19.00
32173;DHT22;18679;45.190;5.722;2022-07-30T17:12:09;35.70;19.60
32173;DHT22;18679;45.190;5.722;2022-07-30T17:15:11;35.20;19.90
32173;DHT22;18679;45.190;5.722;2022-07-30T17:18:12;34.90;20.20
32173;DHT22;18679;45.190;5.722;2022-07-30T17:21:13;34.60;20.10
32173;DHT22;18679;45.190;5.722;2022-07-30T17:24:14;34.50;20.30
32173;DHT22;18679;45.190;5.722;2022-07-30T17:27:15;34.30;20.30
32173;DHT22;18679;45.190;5.722;2022-07-30T17:30:16;34.20;20.30
32173;DHT22;18679;45.190;5.722;2022-07-30T17:33:18;34.10;20.40
32173;DHT22;18679;45.190;5.722;2022-07-30T17:36:18;34.00;20.30
32173;DHT22;18679;45.190;5.722;2022-07-30T17:39:21;33.90;20.30
32173;DHT22;18679;45.190;5.722;2022-07-30T17:42:22;33.90;20.60
32173;DHT22;18679;45.190;5.722;2022-07-30T17:45:25;33.80;20.70
32173;DHT22;18679;45.190;5.722;2022-07-30T17:48:26;33.70;20.90
32173;DHT22;18679;45.190;5.722;2022-07-30T17:51:27;33.60;21.20
32173;DHT22;18679;45.190;5.722;2022-07-30T17:54:28;33.40;21.30
32173;DHT22;18679;45.190;5.722;2022-07-30T17:57:29;33.30;21.50
32173;DHT22;18679;45.190;5.722;2022-07-30T18:00:30;33.20;21.80
32173;DHT22;18679;45.190;5.722;2022-07-30T18:03:31;33.00;21.90
32173;DHT22;18679;45.190;5.722;2022-07-30T18:06:32;33.00;21.90
32173;DHT22;18679;45.190;5.722;2022-07-30T18:09:33;32.90;21.90
32173;DHT22;18679;45.190;5.722;2022-07-30T18:12:35;32.80;22.00
32173;DHT22;18679;45.190;5.722;2022-07-30T18:15:36;32.80;22.10
32173;DHT22;18679;45.190;5.722;2022-07-30T18:18:38;32.80;22.00
32173;DHT22;18679;45.190;5.722;2022-07-30T18:21:39;32.80;22.10
32173;DHT22;18679;45.190;5.722;2022-07-30T18:24:39;32.70;22.10
32173;DHT22;18679;45.190;5.722;2022-07-30T18:27:41;32.70;22.30
32173;DHT22;18679;45.190;5.722;2022-07-30T18:30:41;32.60;22.30
32173;DHT22;18679;45.190;5.722;2022-07-30T18:33:43;32.50;22.40
32173;DHT22;18679;45.190;5.722;2022-07-30T18:36:44;32.50;22.60
32173;DHT22;18679;45.190;5.722;2022-07-30T18:39:48;32.40;22.70
32173;DHT22;18679;45.190;5.722;2022-07-30T18:42:49;32.30;22.60
32173;DHT22;18679;45.190;5.722;2022-07-30T18:45:50;32.20;22.60
32173;DHT22;18679;45.190;5.722;2022-07-30T18:48:51;32.20;22.60
32173;DHT22;18679;45.190;5.722;2022-07-30T18:51:52;32.20;22.70
32173;DHT22;18679;45.190;5.722;2022-07-30T18:54:53;32.10;22.80
32173;DHT22;18679;45.190;5.722;2022-07-30T18:57:54;32.00;22.70
32173;DHT22;18679;45.190;5.722;2022-07-30T19:00:55;32.00;22.80
32173;DHT22;18679;45.190;5.722;2022-07-30T19:03:56;31.90;22.90
32173;DHT22;18679;45.190;5.722;2022-07-30T19:06:57;31.90;22.90
32173;DHT22;18679;45.190;5.722;2022-07-30T19:09:58;31.80;22.90
32173;DHT22;18679;45.190;5.722;2022-07-30T19:13:00;31.80;23.00
32173;DHT22;18679;45.190;5.722;2022-07-30T19:16:01;31.70;22.90
32173;DHT22;18679;45.190;5.722;2022-07-30T19:19:02;31.70;22.90
32173;DHT22;18679;45.190;5.722;2022-07-30T19:22:03;31.60;22.90
32173;DHT22;18679;45.190;5.722;2022-07-30T19:25:04;31.60;22.90
32173;DHT22;18679;45.190;5.722;2022-07-30T19:28:05;31.60;22.80
32173;DHT22;18679;45.190;5.722;2022-07-30T19:31:06;31.60;22.80
32173;DHT22;18679;45.190;5.722;2022-07-30T19:34:08;31.60;22.80
32173;DHT22;18679;45.190;5.722;2022-07-30T19:37:10;31.60;22.90
32173;DHT22;18679;45.190;5.722;2022-07-30T19:40:11;31.60;22.90
32173;DHT22;18679;45.190;5.722;2022-07-30T19:43:12;31.50;22.90
32173;DHT22;18679;45.190;5.722;2022-07-30T19:46:13;31.50;22.90
32173;DHT22;18679;45.190;5.722;2022-07-30T19:49:14;31.50;22.90
32173;DHT22;18679;45.190;5.722;2022-07-30T19:52:16;31.50;23.00
32173;DHT22;18679;45.190;5.722;2022-07-30T19:55:17;31.40;23.00
32173;DHT22;18679;45.190;5.722;2022-07-30T19:58:18;31.40;23.10
32173;DHT22;18679;45.190;5.722;2022-07-30T20:01:19;31.40;23.20
32173;DHT22;18679;45.190;5.722;2022-07-30T20:04:20;31.40;23.20